Time;durP1;ratioP1;P1;durP2;ratioP2;P2;SDS_P1;SDS_P2;PMS_P1;PMS_P2;Temp;Humidity;BMP_temperature;BMP_pressure;BME280_temperature;BME280_humidity;BME280_pressure;Samples;Min_cycle;Max_cycle;Signal;HPM_P1;HPM_P2
2022/02/21 00:01:42;;;;;;;5.77;2.20;;;;;;;7.26;100.00;98443.20;3481906;83;99022;-89
2022/02/21 00:06:43;;;;;;;4.40;2.00;;;;;;;7.28;100.00;98424.41;3479721;82;98957;-90
2022/02/21 00:11:44;;;;;;;5.73;2.00;;;;;;;7.28;100.00;98415.63;3398997;84;98898;-90
2022/02/21 00:16:45;;;;;;;4.17;1.93;;;;;;;7.28;100.00;98388.84;3482733;83;26050;-86
2022/02/21 00:21:46;;;;;;;6.00;2.17;;;;;;;7.30;100.00;98390.00;3479893;82;98733;-89
2022/02/21 00:26:47;;;;;;;6.37;2.13;;;;;;;7.31;100.00;98371.03;3475102;81;98824;-90
2022/02/21 00:31:48;;;;;;;5.10;2.22;;;;;;;7.30;100.00;98355.80;3484397;80;98455;-90
2022/02/21 00:36:49;;;;;;;7.47;2.40;;;;;;;7.32;100.00;98358.90;3480420;83;98489;-88
2022/02/21 00:41:50;;;;;;;5.83;2.30;;;;;;;7.32;100.00;98332.91;3492419;83;98914;-89
2022/02/21 00:46:51;;;;;;;5.47;2.10;;;;;;;7.31;100.00;98320.42;3489943;81;98129;-88
2022/02/21 00:51:52;;;;;;;5.67;2.43;;;;;;;7.32;100.00;98316.49;3491576;82;98567;-91
2022/02/21 00:56:53;;;;;;;4.42;1.80;;;;;;;7.34;100.00;98296.94;3487506;83;98890;-91
2022/02/21 01:01:54;;;;;;;2.70;1.40;;;;;;;7.33;100.00;98272.93;3494861;82;98846;-88
2022/02/21 01:06:55;;;;;;;3.10;1.50;;;;;;;7.35;100.00;98277.39;3487803;82;98937;-88
2022/02/21 01:11:56;;;;;;;4.23;2.10;;;;;;;7.34;100.00;98255.91;3493336;82;98931;-91
2022/02/21 01:16:58;;;;;;;4.30;1.82;;;;;;;7.36;100.00;98239.87;3488539;81;98116;-88
2022/02/21 01:21:58;;;;;;;6.33;1.57;;;;;;;7.37;100.00;98223.64;3495575;83;98202;-86
2022/02/21 01:26:59;;;;;;;3.37;1.50;;;;;;;7.37;100.00;98215.43;3486116;82;98814;-87
2022/02/21 01:32:00;;;;;;;3.77;1.55;;;;;;;7.37;100.00;98200.38;3468873;83;99061;-90
2022/02/21 01:37:01;;;;;;;4.70;1.10;;;;;;;7.38;100.00;98180.04;3485900;82;99119;-89
2022/02/21 01:42:04;;;;;;;2.70;1.27;;;;;;;7.38;100.00;98172.62;3494619;80;98877;-86
2022/02/21 01:47:07;;;;;;;5.40;1.47;;;;;;;7.39;100.00;98143.28;3489208;83;98656;-88
2022/02/21 01:52:11;;;;;;;2.73;1.20;;;;;;;7.40;100.00;98137.98;3490766;83;25862;-87
2022/02/21 01:57:12;;;;;;;2.90;1.32;;;;;;;7.42;100.00;98119.97;3441583;83;98546;-85
2022/02/21 02:02:13;;;;;;;3.53;1.30;;;;;;;7.44;100.00;98111.36;3364933;85;99117;-88
2022/02/21 02:07:15;;;;;;;3.80;1.30;;;;;;;7.44;100.00;98082.63;3464460;82;99024;-85
2022/02/21 02:12:15;;;;;;;4.20;1.37;;;;;;;7.46;100.00;98088.45;3457581;83;98984;-87
2022/02/21 02:17:16;;;;;;;3.77;1.20;;;;;;;7.44;100.00;98045.11;3490297;81;98989;-86
2022/02/21 02:22:21;;;;;;;4.23;1.30;;;;;;;7.46;100.00;98065.20;3497097;82;31632;-88
2022/02/21 02:27:23;;;;;;;2.62;1.10;;;;;;;7.46;100.00;98032.36;3490066;81;98616;-86
2022/02/21 02:32:24;;;;;;;3.25;1.17;;;;;;;7.47;100.00;98029.22;3449500;83;99010;-88
2022/02/21 02:37:25;;;;;;;2.37;1.17;;;;;;;7.50;100.00;98008.45;3433944;83;99116;-88
2022/02/21 02:42:26;;;;;;;3.30;1.20;;;;;;;7.51;100.00;97999.05;3455965;84;98912;-89
2022/02/21 02:47:27;;;;;;;2.73;1.30;;;;;;;7.49;100.00;97989.92;3438975;82;98619;-89
2022/02/21 02:52:28;;;;;;;3.10;1.50;;;;;;;7.52;100.00;97966.42;3413915;85;32151;-91
2022/02/21 02:57:29;;;;;;;3.63;1.20;;;;;;;7.52;100.00;97963.69;3410845;84;98877;-88
2022/02/21 03:02:30;;;;;;;2.65;1.10;;;;;;;7.53;100.00;97935.88;3419275;85;98833;-87
2022/02/21 03:07:31;;;;;;;3.37;1.20;;;;;;;7.53;100.00;97926.30;3414073;83;98501;-87
2022/02/21 03:12:32;;;;;;;4.10;1.50;;;;;;;7.55;100.00;97912.21;3418905;85;99010;-88
2022/02/21 03:17:33;;;;;;;3.23;1.53;;;;;;;7.56;100.00;97906.91;3415494;85;98852;-88
2022/02/21 03:22:34;;;;;;;3.10;1.20;;;;;;;7.57;100.00;97903.77;3398520;85;31573;-89
2022/02/21 03:27:41;;;;;;;2.83;1.20;;;;;;;7.59;100.00;97896.52;3412297;85;98674;-92
2022/02/21 03:32:42;;;;;;;3.50;0.98;;;;;;;7.59;100.00;97891.80;3420161;84;98727;-87
2022/02/21 03:37:43;;;;;;;3.00;1.10;;;;;;;7.62;100.00;97887.45;3426254;83;98963;-87
2022/02/21 03:42:44;;;;;;;4.70;1.00;;;;;;;7.65;100.00;97882.52;3459029;84;98945;-87
2022/02/21 03:47:46;;;;;;;3.00;1.33;;;;;;;7.66;100.00;97863.53;3452759;82;98563;-91
2022/02/21 03:52:47;;;;;;;3.57;1.50;;;;;;;7.69;100.00;97867.56;3453015;83;34824;-89
2022/02/21 03:57:48;;;;;;;2.13;1.10;;;;;;;7.76;100.00;97847.52;3449003;83;98874;-89
2022/02/21 04:02:49;;;;;;;2.70;1.30;;;;;;;7.80;100.00;97832.55;3506054;83;98649;-89
2022/02/21 04:07:50;;;;;;;3.20;1.00;;;;;;;7.84;100.00;97826.42;3479370;83;99057;-88
2022/02/21 04:12:50;;;;;;;3.00;1.00;;;;;;;7.91;100.00;97804.37;3509741;83;99121;-91
2022/02/21 04:17:52;;;;;;;4.87;1.50;;;;;;;7.97;100.00;97799.18;3495280;82;98720;-87
2022/02/21 04:22:53;;;;;;;2.53;1.27;;;;;;;7.99;100.00;97792.09;3505971;83;34881;-89
2022/02/21 04:27:56;;;;;;;4.27;1.13;;;;;;;8.03;100.00;97781.05;3487209;83;98687;-91
2022/02/21 04:32:57;;;;;;;5.20;1.40;;;;;;;8.09;100.00;97764.30;3488998;82;98681;-90
2022/02/21 04:37:58;;;;;;;3.70;1.20;;;;;;;8.12;100.00;97764.21;3480518;83;98831;-91
2022/02/21 04:42:58;;;;;;;3.57;1.20;;;;;;;8.17;100.00;97742.38;3470365;81;98888;-90
2022/02/21 04:47:59;;;;;;;3.13;1.20;;;;;;;8.24;100.00;97718.98;3452427;82;98987;-89
2022/02/21 04:53:00;;;;;;;4.60;1.93;;;;;;;8.28;100.00;97727.29;3433008;84;34869;-89
2022/02/21 04:58:01;;;;;;;5.20;1.30;;;;;;;8.32;100.00;97734.84;3405753;85;98755;-91
2022/02/21 05:03:02;;;;;;;3.10;1.00;;;;;;;8.34;100.00;97724.83;3470641;83;98882;-88
2022/02/21 05:08:03;;;;;;;3.30;1.20;;;;;;;8.42;100.00;97728.93;3455666;81;99357;-90
2022/02/21 05:13:04;;;;;;;3.93;1.10;;;;;;;8.48;100.00;97732.70;3416040;85;98909;-94
2022/02/21 05:18:05;;;;;;;4.43;1.43;;;;;;;8.53;100.00;97738.45;3407919;84;98870;-91
2022/02/21 05:23:06;;;;;;;2.40;0.83;;;;;;;8.56;100.00;97721.75;3409794;84;99299;-90
2022/02/21 05:28:07;;;;;;;4.83;1.37;;;;;;;8.62;100.00;97731.00;3421551;83;98511;-93
2022/02/21 05:33:08;;;;;;;4.63;1.27;;;;;;;8.69;99.99;97737.09;3482797;82;98633;-91
2022/02/21 05:38:09;;;;;;;6.27;1.57;;;;;;;8.73;99.12;97752.08;3489982;83;98729;-90
2022/02/21 05:43:10;;;;;;;5.67;0.87;;;;;;;8.76;99.71;97769.81;3502378;82;98393;-91
2022/02/21 05:48:11;;;;;;;4.87;1.00;;;;;;;8.72;98.92;97763.62;3472615;83;98904;-88
2022/02/21 05:53:12;;;;;;;1.77;0.85;;;;;;;8.72;98.88;97778.70;3500836;81;98780;-90
2022/02/21 05:58:12;;;;;;;3.37;0.80;;;;;;;8.69;98.57;97788.39;3494929;83;98173;-87
2022/02/21 06:03:13;;;;;;;1.70;0.60;;;;;;;8.68;97.79;97801.94;3500374;83;98742;-86
2022/02/21 06:08:14;;;;;;;3.42;0.50;;;;;;;8.65;97.28;97820.00;3495037;83;98019;-91
2022/02/21 06:13:16;;;;;;;1.53;0.60;;;;;;;8.50;95.76;97828.98;3494822;83;98703;-89
2022/02/21 06:18:17;;;;;;;1.57;0.57;;;;;;;8.48;95.12;97826.66;3489346;83;98432;-91
2022/02/21 06:23:18;;;;;;;3.10;0.67;;;;;;;8.35;93.61;97820.28;3494421;83;98649;-90
2022/02/21 06:28:18;;;;;;;2.67;0.80;;;;;;;8.09;92.58;97828.66;3489524;83;98013;-88
2022/02/21 06:33:19;;;;;;;1.03;0.40;;;;;;;7.95;91.77;97835.20;3502026;83;98515;-89
2022/02/21 06:38:22;;;;;;;2.10;0.57;;;;;;;7.95;91.77;97835.20;3507379;81;98330;-89
2022/02/21 06:43:23;;;;;;;1.00;0.37;;;;;;;7.85;92.42;97849.86;3512665;82;98569;-90
2022/02/21 06:48:24;;;;;;;1.33;0.50;;;;;;;7.78;92.35;97895.77;3505068;82;98705;-89
2022/02/21 06:53:25;;;;;;;1.97;1.13;;;;;;;7.71;91.98;97899.42;3497658;83;98421;-90
2022/02/21 06:58:26;;;;;;;2.47;0.50;;;;;;;7.68;91.82;97915.30;3493548;83;98357;-93
2022/02/21 07:03:26;;;;;;;2.25;0.60;;;;;;;7.64;91.89;97939.21;3497566;83;98168;-89
2022/02/21 07:08:27;;;;;;;1.07;0.40;;;;;;;7.64;90.95;97926.14;3484454;82;98263;-93
2022/02/21 07:13:32;;;;;;;2.00;0.50;;;;;;;7.62;90.05;97916.97;3508173;82;98363;-91
2022/02/21 07:18:37;;;;;;;4.77;1.43;;;;;;;7.62;89.50;97923.03;3494474;83;98569;-94
2022/02/21 07:23:35;;;;;;;2.10;0.60;;;;;;;7.61;89.60;97937.33;3513635;82;98387;-89
2022/02/21 07:28:36;;;;;;;1.93;0.67;;;;;;;7.61;89.60;97937.33;3504659;83;98043;-92
2022/02/21 07:33:37;;;;;;;2.30;0.47;;;;;;;7.60;88.03;97930.89;3513361;83;98135;-91
2022/02/21 07:38:42;;;;;;;1.40;0.40;;;;;;;7.65;88.16;97959.16;3508042;82;98538;-93
2022/02/21 07:43:42;;;;;;;1.70;0.60;;;;;;;7.63;87.42;97957.44;3495934;82;97627;-92
2022/02/21 07:48:43;;;;;;;2.27;0.60;;;;;;;7.62;87.42;97964.08;3513574;82;98769;-92
2022/02/21 07:53:44;;;;;;;0.87;0.40;;;;;;;7.63;86.51;97988.30;3487625;82;98462;-94
2022/02/21 07:58:51;;;;;;;1.23;0.50;;;;;;;7.63;86.54;97988.30;3518763;82;98445;-91
2022/02/21 08:03:52;;;;;;;3.37;0.50;;;;;;;7.66;85.81;97997.65;3512923;83;98609;-95
2022/02/21 08:08:53;;;;;;;1.55;0.50;;;;;;;7.66;86.18;98025.02;3503478;82;98671;-91
2022/02/21 08:13:54;;;;;;;3.07;0.90;;;;;;;7.67;86.33;98036.93;3517800;82;98269;-93
2022/02/21 08:18:55;;;;;;;5.00;2.07;;;;;;;7.68;86.50;98050.79;3499128;83;98458;-89
2022/02/21 08:23:56;;;;;;;4.53;1.00;;;;;;;7.68;86.32;98054.89;3520235;83;98811;-88
2022/02/21 08:28:57;;;;;;;3.10;0.63;;;;;;;7.69;86.75;98057.05;3522575;82;98082;-88
2022/02/21 08:33:58;;;;;;;2.10;0.80;;;;;;;7.68;86.82;98063.11;3523074;81;98064;-85
2022/02/21 08:38:59;;;;;;;2.70;0.60;;;;;;;7.65;87.24;98066.69;3527639;82;98583;-87
2022/02/21 08:44:00;;;;;;;2.77;0.60;;;;;;;7.64;86.91;98069.22;3512541;82;98362;-86
2022/02/21 08:49:03;;;;;;;2.43;0.60;;;;;;;7.68;85.60;98085.00;3512665;81;98419;-86
2022/02/21 08:54:04;;;;;;;3.77;0.50;;;;;;;7.64;82.51;98096.59;3510777;82;98464;-86
2022/02/21 08:59:05;;;;;;;1.93;0.60;;;;;;;7.65;81.74;98105.59;3503255;83;98475;-88
2022/02/21 09:04:08;;;;;;;4.03;0.63;;;;;;;7.78;80.50;98117.52;3504800;83;98375;-88
2022/02/21 09:09:09;;;;;;;4.63;0.90;;;;;;;7.86;81.00;98183.31;3525206;82;98474;-87
2022/02/21 09:14:09;;;;;;;4.63;1.40;;;;;;;7.23;82.48;98195.06;3525295;81;98398;-86
2022/02/21 09:19:10;;;;;;;3.33;1.20;;;;;;;6.68;82.53;98170.66;3512081;82;98364;-87
2022/02/21 09:24:11;;;;;;;5.63;1.20;;;;;;;6.43;83.59;98169.34;3521170;83;97556;-86
2022/02/21 09:29:12;;;;;;;6.78;1.72;;;;;;;6.41;82.57;98181.25;3500318;82;98443;-86
2022/02/21 09:34:13;;;;;;;12.10;1.97;;;;;;;6.29;82.92;98171.61;3500483;81;33512;-85
2022/02/21 09:39:14;;;;;;;14.80;3.57;;;;;;;6.33;82.32;98181.89;3481435;81;98631;-89
2022/02/21 09:44:17;;;;;;;8.08;2.00;;;;;;;6.33;82.01;98202.37;3485998;83;98444;-86
2022/02/21 09:49:19;;;;;;;12.50;3.10;;;;;;;6.55;82.10;98207.09;3479875;82;98416;-88
2022/02/21 09:54:21;;;;;;;7.17;1.40;;;;;;;6.89;81.66;98215.56;3477231;83;98489;-86
2022/02/21 09:59:22;;;;;;;9.58;1.77;;;;;;;7.18;81.57;98226.38;3483508;82;98356;-85
2022/02/21 10:04:27;;;;;;;8.57;2.10;;;;;;;7.46;82.09;98232.11;3492473;82;31646;-85
2022/02/21 10:09:28;;;;;;;9.40;1.75;;;;;;;7.54;81.10;98248.65;3468135;83;98712;-85
2022/02/21 10:14:31;;;;;;;9.67;2.33;;;;;;;7.59;81.06;98244.85;3484138;82;97353;-86
2022/02/21 10:19:39;;;;;;;8.85;3.33;;;;;;;7.60;80.21;98250.53;3477035;82;98299;-84
2022/02/21 10:24:49;;;;;;;6.03;0.90;;;;;;;7.54;75.34;98319.80;3454253;83;98366;-85
2022/02/21 10:30:00;;;;;;;2.42;0.82;;;;;;;6.99;79.60;98343.17;3390630;84;98506;-86
2022/02/21 10:35:21;;;;;;;6.67;1.40;;;;;;;6.24;82.28;98335.90;3425780;84;27269;-86
2022/02/21 10:40:30;;;;;;;11.73;3.40;;;;;;;5.87;82.45;98329.42;3447970;83;98398;-89
2022/02/21 10:45:32;;;;;;;10.58;1.90;;;;;;;5.58;83.85;98323.28;3438598;83;98428;-86
2022/02/21 10:50:36;;;;;;;8.28;2.05;;;;;;;5.58;84.31;98317.03;3419519;83;98550;-86
2022/02/21 10:55:40;;;;;;;10.82;2.30;;;;;;;5.50;83.31;98316.27;3418445;85;98673;-86
2022/02/21 11:00:42;;;;;;;10.33;1.83;;;;;;;5.64;83.09;98309.42;3420366;84;98469;-85
2022/02/21 11:05:45;;;;;;;8.28;1.92;;;;;;;6.06;83.78;98312.59;3435222;84;98636;-86
2022/02/21 11:10:52;;;;;;;14.00;2.33;;;;;;;6.39;80.52;98310.64;3491356;83;98546;-84
2022/02/21 11:15:53;;;;;;;10.05;1.32;;;;;;;6.69;81.13;98309.44;3512573;83;98429;-87
2022/02/21 11:20:54;;;;;;;7.20;1.53;;;;;;;7.04;79.53;98315.39;3502766;82;98415;-90
2022/02/21 11:26:03;;;;;;;8.83;1.80;;;;;;;7.30;79.20;98318.11;3506353;83;98399;-86
2022/02/21 11:31:08;;;;;;;6.95;1.42;;;;;;;7.53;78.86;98320.99;3492902;83;98349;-88
2022/02/21 11:36:13;;;;;;;6.10;1.80;;;;;;;7.68;78.79;98320.42;3506160;83;98789;-87
2022/02/21 11:41:15;;;;;;;4.97;1.32;;;;;;;7.62;75.49;98333.00;3501988;83;97961;-87
2022/02/21 11:46:29;;;;;;;7.47;1.22;;;;;;;7.52;75.50;98323.55;3515978;82;98131;-91
2022/02/21 11:51:37;;;;;;;4.93;1.30;;;;;;;7.45;72.12;98325.76;3465854;83;98398;-86
2022/02/21 11:56:55;;;;;;;7.33;1.47;;;;;;;7.44;71.88;98334.38;3498125;82;98751;-90
2022/02/21 12:02:15;;;;;;;7.72;1.75;;;;;;;7.51;71.72;98347.39;3494750;82;98682;-87
2022/02/21 12:07:36;;;;;;;10.23;1.90;;;;;;;7.47;67.56;98362.30;3499412;83;98902;-87
2022/02/21 12:13:11;;;;;;;5.30;1.40;;;;;;;7.40;68.11;98367.24;3498247;83;98836;-88
2022/02/21 12:18:32;;;;;;;6.40;1.30;;;;;;;7.37;67.93;98380.96;3477907;83;98372;-88
2022/02/21 12:23:33;;;;;;;6.92;1.47;;;;;;;7.38;67.79;98394.83;3493716;83;98363;-88
2022/02/21 12:28:34;;;;;;;9.13;1.80;;;;;;;7.41;66.83;98404.36;3491614;83;98392;-87
2022/02/21 12:33:38;;;;;;;4.73;1.63;;;;;;;7.47;67.12;98415.06;3497183;83;98156;-87
2022/02/21 12:38:40;;;;;;;8.55;1.45;;;;;;;7.55;67.22;98415.20;3460339;81;98470;-89
2022/02/21 12:43:48;;;;;;;5.78;1.52;;;;;;;7.66;62.58;98416.45;3446533;82;98424;-90
2022/02/21 12:48:50;;;;;;;5.40;1.30;;;;;;;7.76;63.82;98410.89;3457318;83;98546;-89
2022/02/21 12:54:09;;;;;;;5.30;1.80;;;;;;;7.85;63.60;98419.38;3501173;83;98172;-89
2022/02/21 12:59:11;;;;;;;8.23;1.65;;;;;;;7.88;63.82;98435.59;3494020;82;98305;-85
2022/02/21 13:04:12;;;;;;;9.63;1.50;;;;;;;7.98;61.10;98433.34;3493329;81;98632;-88
2022/02/21 13:09:20;;;;;;;6.13;2.20;;;;;;;8.08;60.97;98442.05;3477124;83;98987;-86
2022/02/21 13:14:25;;;;;;;8.28;1.55;;;;;;;8.02;60.82;98429.98;3507869;80;97355;-88
2022/02/21 13:19:31;;;;;;;6.67;1.43;;;;;;;7.92;60.57;98442.58;3491752;82;98433;-88
2022/02/21 13:24:36;;;;;;;8.10;1.37;;;;;;;7.85;60.09;98435.81;3495118;83;98441;-94
2022/02/21 13:29:43;;;;;;;4.23;1.30;;;;;;;7.77;60.89;98435.71;3493615;82;98419;-87
2022/02/21 13:35:02;;;;;;;7.87;1.90;;;;;;;7.67;62.05;98450.27;3497439;83;29762;-86
2022/02/21 13:40:13;;;;;;;11.57;3.50;;;;;;;7.75;62.01;98449.62;3491397;83;98575;-91
2022/02/21 13:45:26;;;;;;;4.03;1.30;;;;;;;7.73;60.35;98445.13;3516333;81;98782;-89
2022/02/21 13:50:57;;;;;;;5.42;1.10;;;;;;;7.70;59.23;98433.63;3495519;82;98945;-87
2022/02/21 13:56:09;;;;;;;8.65;2.08;;;;;;;7.64;59.00;98434.64;3487169;83;98358;-87
2022/02/21 14:01:29;;;;;;;5.87;1.73;;;;;;;7.57;59.08;98464.03;3519486;81;98950;-83
2022/02/21 14:06:38;;;;;;;5.62;2.10;;;;;;;7.46;57.78;98451.03;3512493;82;97575;-85
2022/02/21 14:11:44;;;;;;;6.03;1.50;;;;;;;7.31;58.86;98451.73;3515248;82;98605;-87
2022/02/21 14:16:45;;;;;;;8.00;1.50;;;;;;;7.22;58.47;98462.95;3520960;83;33404;-88
2022/02/21 14:21:52;;;;;;;6.30;1.50;;;;;;;7.12;59.97;98465.17;3520957;83;99343;-90
2022/02/21 14:26:55;;;;;;;9.63;3.17;;;;;;;7.06;59.92;98465.41;3474589;82;98579;-90
2022/02/21 14:31:55;;;;;;;13.65;2.95;;;;;;;6.93;61.58;98473.91;3513832;81;98336;-92
2022/02/21 14:36:56;;;;;;;8.77;2.20;;;;;;;6.85;63.83;98469.06;3488328;83;108067;-86
2022/02/21 14:41:57;;;;;;;11.63;4.10;;;;;;;6.71;65.34;98475.95;3505006;83;98583;-89
2022/02/21 14:46:59;;;;;;;10.58;2.70;;;;;;;6.62;66.53;98474.84;3461985;83;98479;-88
2022/02/21 14:52:00;;;;;;;8.67;2.20;;;;;;;6.55;65.97;98488.54;3467977;83;98458;-85
2022/02/21 14:57:01;;;;;;;9.60;2.90;;;;;;;6.44;66.20;98484.47;3468291;83;98374;-90
2022/02/21 15:02:03;;;;;;;10.85;2.30;;;;;;;6.41;66.63;98467.52;3470580;83;98703;-85
2022/02/21 15:07:04;;;;;;;10.40;2.20;;;;;;;6.37;67.06;98468.69;3444679;83;98904;-85
2022/02/21 15:12:06;;;;;;;6.97;1.67;;;;;;;6.32;66.64;98480.80;3321945;86;98530;-89
2022/02/21 15:17:07;;;;;;;7.50;2.30;;;;;;;6.27;67.47;98477.11;3317932;86;98364;-89
2022/02/21 15:22:08;;;;;;;10.70;3.17;;;;;;;6.20;66.89;98473.05;3349319;85;98377;-84
2022/02/21 15:27:10;;;;;;;16.70;4.10;;;;;;;6.14;67.06;98477.36;3358922;83;98838;-88
2022/02/21 15:32:11;;;;;;;8.03;2.23;;;;;;;6.10;67.13;98475.22;3411795;83;98486;-87
2022/02/21 15:37:14;;;;;;;9.48;3.12;;;;;;;6.04;66.16;98478.16;3401633;84;98375;-86
2022/02/21 15:42:15;;;;;;;15.83;4.63;;;;;;;6.01;66.39;98486.36;3448266;82;98931;-86
2022/02/21 15:47:16;;;;;;;12.57;4.47;;;;;;;5.98;67.00;98477.01;3443503;83;98505;-88
2022/02/21 15:52:17;;;;;;;10.47;3.37;;;;;;;5.96;66.58;98475.84;3436990;84;97369;-90
2022/02/21 15:57:18;;;;;;;9.70;3.03;;;;;;;5.92;66.31;98475.85;3431631;80;98744;-88
2022/02/21 16:02:20;;;;;;;8.70;3.07;;;;;;;5.89;66.77;98470.41;3414306;84;98378;-88
2022/02/21 16:07:21;;;;;;;9.53;2.00;;;;;;;5.86;66.69;98478.00;3474068;82;98862;-87
2022/02/21 16:12:21;;;;;;;11.67;3.13;;;;;;;5.83;67.26;98478.20;3464560;82;98826;-90
2022/02/21 16:17:25;;;;;;;10.20;3.30;;;;;;;5.81;67.23;98486.01;3463102;83;98722;-90
2022/02/21 16:22:25;;;;;;;10.73;2.90;;;;;;;5.80;67.06;98480.94;3432540;83;98547;-91
2022/02/21 16:27:26;;;;;;;7.70;2.50;;;;;;;5.78;67.19;98492.81;3454292;83;98705;-89
2022/02/21 16:32:27;;;;;;;10.83;2.23;;;;;;;5.78;66.76;98492.20;3450858;82;98418;-86
2022/02/21 16:37:28;;;;;;;23.53;8.83;;;;;;;5.77;66.57;98499.41;3451101;83;99135;-88
2022/02/21 16:42:29;;;;;;;17.93;6.33;;;;;;;5.73;67.03;98495.33;3429694;84;98121;-87
2022/02/21 16:47:30;;;;;;;12.10;2.57;;;;;;;5.67;67.33;98500.98;3389965;82;98467;-86
2022/02/21 16:52:31;;;;;;;10.67;2.87;;;;;;;5.59;67.44;98500.81;3406397;85;30589;-89
2022/02/21 16:57:35;;;;;;;10.23;2.83;;;;;;;5.54;67.66;98497.68;3410628;84;98898;-87
2022/02/21 17:02:36;;;;;;;14.40;5.00;;;;;;;5.45;67.58;98498.06;3423329;84;99291;-87
2022/02/21 17:07:37;;;;;;;8.13;2.10;;;;;;;5.37;68.35;98503.91;3381321;84;98880;-87
2022/02/21 17:12:40;;;;;;;8.25;2.65;;;;;;;5.35;68.53;98502.16;3421055;84;98761;-90
2022/02/21 17:17:41;;;;;;;12.30;3.43;;;;;;;5.33;68.67;98501.19;3414408;84;98087;-89
2022/02/21 17:22:42;;;;;;;9.33;2.40;;;;;;;5.30;69.10;98503.31;3422802;85;31281;-89
2022/02/21 17:27:43;;;;;;;10.03;2.80;;;;;;;5.29;69.34;98513.27;3413525;85;98524;-89
2022/02/21 17:32:44;;;;;;;18.30;4.90;;;;;;;5.28;69.90;98510.31;3396065;84;98912;-91
2022/02/21 17:37:45;;;;;;;18.53;5.47;;;;;;;5.26;70.47;98509.37;3416101;84;98851;-91
2022/02/21 17:42:46;;;;;;;8.73;2.83;;;;;;;5.26;70.59;98522.21;3419287;85;98965;-90
2022/02/21 17:47:47;;;;;;;8.58;2.55;;;;;;;5.28;70.82;98521.23;3422507;84;98525;-88
2022/02/21 17:52:48;;;;;;;12.00;4.23;;;;;;;5.27;71.24;98511.49;3431622;84;31613;-90
2022/02/21 17:57:49;;;;;;;15.53;5.67;;;;;;;5.28;71.52;98525.31;3405986;84;98534;-90
2022/02/21 18:02:51;;;;;;;14.20;4.47;;;;;;;5.28;71.92;98526.11;3415489;83;98923;-88
2022/02/21 18:07:51;;;;;;;17.73;5.50;;;;;;;5.29;72.32;98520.09;3405764;85;98487;-88
2022/02/21 18:12:53;;;;;;;30.07;11.30;;;;;;;5.27;72.76;98515.58;3410241;84;98584;-87
2022/02/21 18:17:54;;;;;;;29.60;7.33;;;;;;;5.25;73.05;98526.88;3402653;85;98634;-87
2022/02/21 18:22:55;;;;;;;13.57;3.67;;;;;;;5.21;73.29;98512.47;3419671;84;34815;-89
2022/02/21 18:27:56;;;;;;;11.97;2.97;;;;;;;5.19;73.58;98521.61;3406367;84;98724;-90
2022/02/21 18:32:57;;;;;;;7.27;2.17;;;;;;;5.17;73.91;98521.80;3420888;83;98304;-90
2022/02/21 18:37:58;;;;;;;7.70;2.70;;;;;;;5.16;74.27;98521.03;3399315;85;98804;-89
2022/02/21 18:43:00;;;;;;;10.53;2.93;;;;;;;5.13;74.74;98521.79;3420236;82;98872;-87
2022/02/21 18:48:03;;;;;;;10.77;3.33;;;;;;;5.10;75.21;98526.67;3422524;83;98717;-87
2022/02/21 18:53:04;;;;;;;9.70;2.57;;;;;;;5.06;76.01;98525.88;3423967;84;34816;-91
2022/02/21 18:58:06;;;;;;;10.50;2.67;;;;;;;4.99;76.81;98520.98;3428116;81;98220;-88
2022/02/21 19:03:09;;;;;;;11.18;2.80;;;;;;;4.90;77.54;98521.92;3429109;82;98670;-88
2022/02/21 19:08:10;;;;;;;14.57;3.37;;;;;;;4.81;78.22;98526.38;3421516;83;98941;-88
2022/02/21 19:13:12;;;;;;;14.95;2.90;;;;;;;4.74;78.67;98522.27;3427385;81;98874;-87
2022/02/21 19:18:18;;;;;;;12.53;2.97;;;;;;;4.69;79.13;98511.75;3420992;83;98593;-84
2022/02/21 19:23:20;;;;;;;12.60;2.72;;;;;;;4.66;79.34;98515.25;3431127;84;26708;-85
2022/02/21 19:28:21;;;;;;;10.67;3.17;;;;;;;4.67;79.35;98510.56;3424124;83;98919;-85
2022/02/21 19:33:22;;;;;;;12.37;3.77;;;;;;;4.69;79.24;98509.02;3431044;84;98728;-87
2022/02/21 19:38:23;;;;;;;12.37;3.73;;;;;;;4.72;79.09;98507.48;3433272;82;99200;-87
2022/02/21 19:43:24;;;;;;;11.43;3.30;;;;;;;4.75;79.04;98513.53;3407212;83;98540;-87
2022/02/21 19:48:26;;;;;;;13.57;3.40;;;;;;;4.81;78.54;98514.72;3431522;83;98796;-85
2022/02/21 19:53:27;;;;;;;16.23;4.67;;;;;;;4.86;78.14;98517.83;3440542;82;101267;-86
2022/02/21 19:58:28;;;;;;;9.90;3.70;;;;;;;4.95;77.85;98520.19;3408563;84;98535;-86
2022/02/21 20:03:30;;;;;;;12.00;2.93;;;;;;;4.99;77.51;98523.14;3431455;84;98508;-88
2022/02/21 20:08:31;;;;;;;11.90;2.50;;;;;;;5.05;77.52;98522.16;3427241;83;98964;-87
2022/02/21 20:13:32;;;;;;;9.53;2.47;;;;;;;5.07;77.90;98532.88;3434500;83;98612;-92
2022/02/21 20:18:33;;;;;;;11.10;2.57;;;;;;;5.10;78.44;98540.30;3421046;82;98537;-90
2022/02/21 20:23:37;;;;;;;9.43;2.60;;;;;;;5.10;79.27;98537.58;3420344;81;98833;-89
2022/02/21 20:28:37;;;;;;;12.17;4.00;;;;;;;5.08;79.89;98546.70;3440406;83;98452;-85
2022/02/21 20:33:38;;;;;;;9.97;2.70;;;;;;;5.08;80.44;98546.70;3424466;83;98688;-93
2022/02/21 20:38:39;;;;;;;12.60;4.50;;;;;;;5.07;81.29;98548.48;3419949;81;98420;-85
2022/02/21 20:43:41;;;;;;;12.43;3.40;;;;;;;5.02;81.84;98548.85;3439078;83;98866;-91
2022/02/21 20:48:43;;;;;;;11.03;3.43;;;;;;;5.00;82.28;98555.25;3425129;83;98616;-88
2022/02/21 20:53:44;;;;;;;12.60;3.27;;;;;;;4.97;82.83;98564.98;3439705;82;98758;-90
2022/02/21 20:58:45;;;;;;;13.17;4.23;;;;;;;4.94;83.35;98572.58;3425662;84;98419;-87
2022/02/21 21:03:45;;;;;;;19.57;4.30;;;;;;;4.89;83.77;98582.48;3431808;82;98387;-87
2022/02/21 21:08:48;;;;;;;12.57;4.00;;;;;;;4.87;84.21;98584.82;3419285;81;98761;-94
2022/02/21 21:13:49;;;;;;;11.57;3.80;;;;;;;4.85;84.68;98599.39;3439401;83;98848;-90
2022/02/21 21:18:50;;;;;;;16.10;4.12;;;;;;;4.82;85.45;98600.74;3424891;82;98493;-91
2022/02/21 21:23:51;;;;;;;10.63;3.27;;;;;;;4.78;85.80;98615.72;3424590;84;98570;-87
2022/02/21 21:28:52;;;;;;;8.07;2.20;;;;;;;4.75;86.19;98617.83;3414774;84;98168;-85
2022/02/21 21:33:53;;;;;;;9.80;3.00;;;;;;;4.70;86.66;98618.19;3444626;84;98486;-87
2022/02/21 21:38:54;;;;;;;10.10;2.23;;;;;;;4.69;87.22;98616.64;3436499;83;98641;-86
2022/02/21 21:43:55;;;;;;;9.13;2.80;;;;;;;4.70;87.38;98627.73;3434264;84;99046;-93
2022/02/21 21:48:56;;;;;;;8.20;2.22;;;;;;;4.65;88.06;98634.14;3413588;84;98429;-87
2022/02/21 21:53:57;;;;;;;9.00;2.67;;;;;;;4.62;88.08;98649.87;3447275;83;98731;-87
2022/02/21 21:58:58;;;;;;;7.70;1.90;;;;;;;4.59;87.95;98660.94;3447134;84;98078;-96
2022/02/21 22:03:59;;;;;;;5.50;1.90;;;;;;;4.57;88.60;98663.84;3453039;82;98626;-87
2022/02/21 22:09:00;;;;;;;22.40;7.43;;;;;;;4.53;88.56;98688.34;3434534;82;98501;-91
2022/02/21 22:14:01;;;;;;;5.07;2.07;;;;;;;4.50;88.69;98701.38;3445276;84;98937;-87
2022/02/21 22:19:02;;;;;;;6.77;2.10;;;;;;;4.46;88.97;98712.81;3454545;84;98895;-88
2022/02/21 22:24:05;;;;;;;7.03;2.17;;;;;;;4.43;89.35;98725.80;3464586;83;98661;-88
2022/02/21 22:29:06;;;;;;;5.10;2.10;;;;;;;4.42;89.18;98740.59;3463051;84;98142;-89
2022/02/21 22:34:08;;;;;;;5.10;1.80;;;;;;;4.40;89.11;98759.83;3446558;83;98022;-89
2022/02/21 22:39:15;;;;;;;5.90;2.50;;;;;;;4.36;89.14;98770.69;3431351;83;98966;-92
2022/02/21 22:44:14;;;;;;;7.97;2.77;;;;;;;4.32;89.26;98782.72;3465879;83;98662;-90
2022/02/21 22:49:15;;;;;;;7.53;2.12;;;;;;;4.26;88.78;98783.63;3426768;83;98436;-88
2022/02/21 22:54:16;;;;;;;6.67;2.30;;;;;;;4.23;88.81;98795.28;3446455;82;98724;-91
2022/02/21 22:59:18;;;;;;;8.67;2.20;;;;;;;4.20;88.54;98798.73;3439365;84;98507;-88
2022/02/21 23:09:38;;;;;;;5.33;1.37;;;;;;;4.13;88.02;98795.95;3431967;83;98188;-88
2022/02/21 23:14:39;;;;;;;4.50;1.70;;;;;;;4.11;87.78;98796.12;3442933;84;98580;-90
2022/02/21 23:19:40;;;;;;;8.00;2.23;;;;;;;4.06;88.02;98806.77;3443168;82;98632;-90
2022/02/21 23:24:41;;;;;;;5.10;1.53;;;;;;;4.02;88.13;98817.40;3443247;82;98662;-89
2022/02/21 23:29:42;;;;;;;7.13;2.30;;;;;;;4.00;88.56;98814.28;3440713;81;98685;-89
2022/02/21 23:34:42;;;;;;;10.93;3.47;;;;;;;3.95;88.48;98824.92;3446696;84;32537;-89
2022/02/21 23:39:43;;;;;;;9.13;3.20;;;;;;;3.96;88.64;98840.66;3433098;82;98779;-89
2022/02/21 23:44:44;;;;;;;8.63;2.70;;;;;;;3.95;89.03;98838.53;3463279;82;98717;-89
2022/02/21 23:49:46;;;;;;;6.83;2.60;;;;;;;3.95;88.98;98851.34;3489072;82;98525;-92
2022/02/21 23:54:47;;;;;;;5.77;2.23;;;;;;;3.93;89.11;98863.95;3482548;79;97523;-90